sensor_id;sensor_type;location;lat;lon;timestamp;P1;durP1;ratioP1;P2;durP2;ratioP2
41217;SDS011;26950;50.960;7.138;2022-07-29T00:01:19;1.80;;;1.02;;
41217;SDS011;26950;50.960;7.138;2022-07-29T00:03:45;3.53;;;1.50;;
41217;SDS011;26950;50.960;7.138;2022-07-29T00:06:12;5.15;;;1.42;;
41217;SDS011;26950;50.960;7.138;2022-07-29T00:08:39;4.95;;;1.55;;
41217;SDS011;26950;50.960;7.138;2022-07-29T00:11:06;3.38;;;1.25;;
41217;SDS011;26950;50.960;7.138;2022-07-29T00:13:32;4.25;;;1.30;;
41217;SDS011;26950;50.960;7.138;2022-07-29T00:15:58;2.80;;;1.27;;
41217;SDS011;26950;50.960;7.138;2022-07-29T00:18:26;6.82;;;1.48;;
41217;SDS011;26950;50.960;7.138;2022-07-29T00:20:53;5.20;;;1.23;;
41217;SDS011;26950;50.960;7.138;2022-07-29T00:23:19;4.25;;;1.30;;
41217;SDS011;26950;50.960;7.138;2022-07-29T00:25:46;3.25;;;1.13;;
41217;SDS011;26950;50.960;7.138;2022-07-29T00:28:12;4.18;;;1.10;;
41217;SDS011;26950;50.960;7.138;2022-07-29T00:30:39;4.13;;;1.30;;
41217;SDS011;26950;50.960;7.138;2022-07-29T00:33:07;4.03;;;1.67;;
41217;SDS011;26950;50.960;7.138;2022-07-29T00:35:35;4.15;;;1.42;;
41217;SDS011;26950;50.960;7.138;2022-07-29T00:38:10;2.92;;;1.58;;
41217;SDS011;26950;50.960;7.138;2022-07-29T00:40:37;6.38;;;1.30;;
41217;SDS011;26950;50.960;7.138;2022-07-29T00:43:04;3.08;;;1.40;;
41217;SDS011;26950;50.960;7.138;2022-07-29T00:45:30;5.18;;;1.30;;
41217;SDS011;26950;50.960;7.138;2022-07-29T00:47:57;4.38;;;1.30;;
41217;SDS011;26950;50.960;7.138;2022-07-29T00:50:23;4.00;;;1.30;;
41217;SDS011;26950;50.960;7.138;2022-07-29T00:52:52;4.85;;;1.45;;
41217;SDS011;26950;50.960;7.138;2022-07-29T00:55:22;4.90;;;1.50;;
41217;SDS011;26950;50.960;7.138;2022-07-29T00:57:48;3.30;;;1.55;;
41217;SDS011;26950;50.960;7.138;2022-07-29T01:00:16;3.63;;;1.30;;
41217;SDS011;26950;50.960;7.138;2022-07-29T01:02:44;3.97;;;1.20;;
41217;SDS011;26950;50.960;7.138;2022-07-29T01:05:13;3.70;;;1.60;;
41217;SDS011;26950;50.960;7.138;2022-07-29T01:07:40;4.70;;;1.50;;
41217;SDS011;26950;50.960;7.138;2022-07-29T01:10:09;5.80;;;1.60;;
41217;SDS011;26950;50.960;7.138;2022-07-29T01:12:38;6.57;;;1.50;;
41217;SDS011;26950;50.960;7.138;2022-07-29T01:15:07;4.50;;;1.80;;
41217;SDS011;26950;50.960;7.138;2022-07-29T01:17:36;5.45;;;1.52;;
41217;SDS011;26950;50.960;7.138;2022-07-29T01:20:07;2.97;;;1.38;;
41217;SDS011;26950;50.960;7.138;2022-07-29T01:22:53;3.55;;;1.33;;
41217;SDS011;26950;50.960;7.138;2022-07-29T01:25:46;5.85;;;1.30;;
41217;SDS011;26950;50.960;7.138;2022-07-29T01:31:33;3.67;;;1.50;;
41217;SDS011;26950;50.960;7.138;2022-07-29T01:34:08;4.85;;;1.38;;
41217;SDS011;26950;50.960;7.138;2022-07-29T01:36:40;2.45;;;1.33;;
41217;SDS011;26950;50.960;7.138;2022-07-29T01:39:10;4.22;;;1.42;;
41217;SDS011;26950;50.960;7.138;2022-07-29T01:41:43;5.10;;;1.60;;
41217;SDS011;26950;50.960;7.138;2022-07-29T01:44:17;2.83;;;1.40;;
41217;SDS011;26950;50.960;7.138;2022-07-29T01:46:49;3.88;;;1.38;;
41217;SDS011;26950;50.960;7.138;2022-07-29T01:49:20;4.28;;;1.48;;
41217;SDS011;26950;50.960;7.138;2022-07-29T01:51:50;4.38;;;1.38;;
41217;SDS011;26950;50.960;7.138;2022-07-29T01:54:20;5.25;;;1.45;;
41217;SDS011;26950;50.960;7.138;2022-07-29T01:56:51;3.30;;;1.70;;
41217;SDS011;26950;50.960;7.138;2022-07-29T01:59:21;5.15;;;1.40;;
41217;SDS011;26950;50.960;7.138;2022-07-29T02:01:52;3.40;;;1.40;;
41217;SDS011;26950;50.960;7.138;2022-07-29T02:04:20;5.75;;;1.40;;
41217;SDS011;26950;50.960;7.138;2022-07-29T02:06:48;5.88;;;1.50;;
41217;SDS011;26950;50.960;7.138;2022-07-29T02:09:16;7.88;;;1.40;;
41217;SDS011;26950;50.960;7.138;2022-07-29T02:11:47;4.45;;;1.38;;
41217;SDS011;26950;50.960;7.138;2022-07-29T02:14:17;4.40;;;1.52;;
41217;SDS011;26950;50.960;7.138;2022-07-29T02:16:45;5.30;;;1.40;;
41217;SDS011;26950;50.960;7.138;2022-07-29T02:19:16;6.60;;;1.30;;
41217;SDS011;26950;50.960;7.138;2022-07-29T02:21:44;4.32;;;1.38;;
41217;SDS011;26950;50.960;7.138;2022-07-29T02:24:12;6.70;;;1.40;;
41217;SDS011;26950;50.960;7.138;2022-07-29T02:26:40;3.60;;;1.30;;
41217;SDS011;26950;50.960;7.138;2022-07-29T02:29:09;4.63;;;1.50;;
41217;SDS011;26950;50.960;7.138;2022-07-29T02:31:38;2.78;;;1.23;;
41217;SDS011;26950;50.960;7.138;2022-07-29T02:34:06;3.10;;;1.30;;
41217;SDS011;26950;50.960;7.138;2022-07-29T02:36:36;2.05;;;1.42;;
41217;SDS011;26950;50.960;7.138;2022-07-29T02:39:03;4.93;;;1.40;;
41217;SDS011;26950;50.960;7.138;2022-07-29T02:41:33;4.88;;;1.33;;
41217;SDS011;26950;50.960;7.138;2022-07-29T02:44:03;5.05;;;1.67;;
41217;SDS011;26950;50.960;7.138;2022-07-29T02:46:35;2.83;;;1.40;;
41217;SDS011;26950;50.960;7.138;2022-07-29T02:49:10;4.20;;;1.30;;
41217;SDS011;26950;50.960;7.138;2022-07-29T02:51:43;4.53;;;1.35;;
41217;SDS011;26950;50.960;7.138;2022-07-29T02:54:14;3.70;;;1.48;;
41217;SDS011;26950;50.960;7.138;2022-07-29T02:56:52;3.67;;;1.42;;
41217;SDS011;26950;50.960;7.138;2022-07-29T02:59:21;4.22;;;1.42;;
41217;SDS011;26950;50.960;7.138;2022-07-29T03:01:50;4.90;;;1.60;;
41217;SDS011;26950;50.960;7.138;2022-07-29T03:04:20;2.42;;;1.30;;
41217;SDS011;26950;50.960;7.138;2022-07-29T03:06:49;4.80;;;1.60;;
41217;SDS011;26950;50.960;7.138;2022-07-29T03:09:18;3.58;;;1.60;;
41217;SDS011;26950;50.960;7.138;2022-07-29T03:11:45;4.25;;;1.25;;
41217;SDS011;26950;50.960;7.138;2022-07-29T03:14:12;3.20;;;1.48;;
41217;SDS011;26950;50.960;7.138;2022-07-29T03:16:39;4.60;;;1.63;;
41217;SDS011;26950;50.960;7.138;2022-07-29T03:19:07;3.78;;;1.20;;
41217;SDS011;26950;50.960;7.138;2022-07-29T03:21:33;5.32;;;1.73;;
41217;SDS011;26950;50.960;7.138;2022-07-29T03:24:02;6.57;;;1.50;;
41217;SDS011;26950;50.960;7.138;2022-07-29T03:26:28;3.85;;;1.40;;
41217;SDS011;26950;50.960;7.138;2022-07-29T03:28:55;4.53;;;1.42;;
41217;SDS011;26950;50.960;7.138;2022-07-29T03:31:21;8.40;;;1.60;;
41217;SDS011;26950;50.960;7.138;2022-07-29T03:33:48;1.88;;;1.20;;
41217;SDS011;26950;50.960;7.138;2022-07-29T03:36:14;5.50;;;1.55;;
41217;SDS011;26950;50.960;7.138;2022-07-29T03:38:40;8.75;;;1.70;;
41217;SDS011;26950;50.960;7.138;2022-07-29T03:41:10;4.97;;;1.50;;
41217;SDS011;26950;50.960;7.138;2022-07-29T03:43:39;8.90;;;1.60;;
41217;SDS011;26950;50.960;7.138;2022-07-29T03:46:07;3.78;;;1.42;;
41217;SDS011;26950;50.960;7.138;2022-07-29T03:48:36;2.92;;;1.30;;
41217;SDS011;26950;50.960;7.138;2022-07-29T03:51:05;3.47;;;1.50;;
41217;SDS011;26950;50.960;7.138;2022-07-29T03:53:32;5.30;;;1.67;;
41217;SDS011;26950;50.960;7.138;2022-07-29T03:56:00;4.53;;;1.35;;
41217;SDS011;26950;50.960;7.138;2022-07-29T03:58:30;4.88;;;1.60;;
41217;SDS011;26950;50.960;7.138;2022-07-29T04:00:57;5.63;;;1.52;;
41217;SDS011;26950;50.960;7.138;2022-07-29T04:03:24;7.28;;;1.30;;
41217;SDS011;26950;50.960;7.138;2022-07-29T04:05:58;4.10;;;1.80;;
41217;SDS011;26950;50.960;7.138;2022-07-29T04:08:25;3.45;;;1.58;;
41217;SDS011;26950;50.960;7.138;2022-07-29T04:10:52;6.57;;;1.40;;
41217;SDS011;26950;50.960;7.138;2022-07-29T04:13:18;3.83;;;1.35;;
41217;SDS011;26950;50.960;7.138;2022-07-29T04:15:47;6.47;;;1.60;;
41217;SDS011;26950;50.960;7.138;2022-07-29T04:18:13;5.30;;;1.58;;
41217;SDS011;26950;50.960;7.138;2022-07-29T04:20:40;5.18;;;1.70;;
41217;SDS011;26950;50.960;7.138;2022-07-29T04:23:06;3.80;;;1.55;;
41217;SDS011;26950;50.960;7.138;2022-07-29T04:25:32;4.35;;;1.75;;
41217;SDS011;26950;50.960;7.138;2022-07-29T04:27:59;7.55;;;1.90;;
41217;SDS011;26950;50.960;7.138;2022-07-29T04:30:29;4.68;;;1.63;;
41217;SDS011;26950;50.960;7.138;2022-07-29T04:32:57;5.45;;;1.80;;
41217;SDS011;26950;50.960;7.138;2022-07-29T04:35:23;4.43;;;1.45;;
41217;SDS011;26950;50.960;7.138;2022-07-29T04:37:50;4.93;;;1.70;;
41217;SDS011;26950;50.960;7.138;2022-07-29T04:40:16;3.92;;;1.50;;
41217;SDS011;26950;50.960;7.138;2022-07-29T04:42:43;3.40;;;1.42;;
41217;SDS011;26950;50.960;7.138;2022-07-29T04:45:09;5.72;;;1.60;;
41217;SDS011;26950;50.960;7.138;2022-07-29T04:47:36;10.70;;;2.00;;
41217;SDS011;26950;50.960;7.138;2022-07-29T04:50:04;6.88;;;1.40;;
41217;SDS011;26950;50.960;7.138;2022-07-29T04:52:32;6.20;;;1.50;;
41217;SDS011;26950;50.960;7.138;2022-07-29T04:54:59;4.80;;;1.63;;
41217;SDS011;26950;50.960;7.138;2022-07-29T04:57:26;5.57;;;1.50;;
41217;SDS011;26950;50.960;7.138;2022-07-29T04:59:52;5.30;;;1.75;;
41217;SDS011;26950;50.960;7.138;2022-07-29T05:02:18;5.70;;;1.60;;
41217;SDS011;26950;50.960;7.138;2022-07-29T05:04:45;8.02;;;2.03;;
41217;SDS011;26950;50.960;7.138;2022-07-29T05:07:13;4.93;;;1.60;;
41217;SDS011;26950;50.960;7.138;2022-07-29T05:09:39;5.00;;;1.80;;
41217;SDS011;26950;50.960;7.138;2022-07-29T05:12:06;5.53;;;1.60;;
41217;SDS011;26950;50.960;7.138;2022-07-29T05:14:33;8.93;;;1.70;;
41217;SDS011;26950;50.960;7.138;2022-07-29T05:16:59;6.13;;;1.90;;
41217;SDS011;26950;50.960;7.138;2022-07-29T05:19:26;5.35;;;1.52;;
41217;SDS011;26950;50.960;7.138;2022-07-29T05:21:52;5.25;;;1.77;;
41217;SDS011;26950;50.960;7.138;2022-07-29T05:24:20;9.07;;;1.50;;
41217;SDS011;26950;50.960;7.138;2022-07-29T05:26:46;4.57;;;1.63;;
41217;SDS011;26950;50.960;7.138;2022-07-29T05:29:13;3.20;;;1.70;;
41217;SDS011;26950;50.960;7.138;2022-07-29T05:31:39;2.90;;;1.52;;
41217;SDS011;26950;50.960;7.138;2022-07-29T05:34:05;5.50;;;1.73;;
41217;SDS011;26950;50.960;7.138;2022-07-29T05:36:32;4.22;;;1.67;;
41217;SDS011;26950;50.960;7.138;2022-07-29T05:38:58;5.88;;;1.95;;
41217;SDS011;26950;50.960;7.138;2022-07-29T05:41:26;6.55;;;1.80;;
41217;SDS011;26950;50.960;7.138;2022-07-29T05:43:52;7.25;;;1.55;;
41217;SDS011;26950;50.960;7.138;2022-07-29T05:46:19;6.70;;;1.70;;
41217;SDS011;26950;50.960;7.138;2022-07-29T05:48:45;5.35;;;1.80;;
41217;SDS011;26950;50.960;7.138;2022-07-29T05:51:11;4.43;;;1.63;;
41217;SDS011;26950;50.960;7.138;2022-07-29T05:53:38;6.78;;;1.85;;
41217;SDS011;26950;50.960;7.138;2022-07-29T05:56:04;9.75;;;1.75;;
41217;SDS011;26950;50.960;7.138;2022-07-29T05:58:33;7.38;;;2.00;;
41217;SDS011;26950;50.960;7.138;2022-07-29T06:00:59;5.25;;;1.60;;
41217;SDS011;26950;50.960;7.138;2022-07-29T06:03:26;5.53;;;1.63;;
41217;SDS011;26950;50.960;7.138;2022-07-29T06:05:53;4.75;;;1.48;;
41217;SDS011;26950;50.960;7.138;2022-07-29T06:08:19;9.73;;;1.77;;
41217;SDS011;26950;50.960;7.138;2022-07-29T06:10:46;7.13;;;1.65;;
41217;SDS011;26950;50.960;7.138;2022-07-29T06:13:12;5.70;;;2.10;;
41217;SDS011;26950;50.960;7.138;2022-07-29T06:15:42;6.07;;;2.13;;
41217;SDS011;26950;50.960;7.138;2022-07-29T06:18:08;8.00;;;2.05;;
41217;SDS011;26950;50.960;7.138;2022-07-29T06:20:35;4.30;;;1.70;;
41217;SDS011;26950;50.960;7.138;2022-07-29T06:23:02;3.42;;;1.50;;
41217;SDS011;26950;50.960;7.138;2022-07-29T06:25:29;6.57;;;1.95;;
41217;SDS011;26950;50.960;7.138;2022-07-29T06:27:57;4.35;;;1.60;;
41217;SDS011;26950;50.960;7.138;2022-07-29T06:30:23;5.65;;;1.67;;
41217;SDS011;26950;50.960;7.138;2022-07-29T06:32:51;4.20;;;1.52;;
41217;SDS011;26950;50.960;7.138;2022-07-29T06:35:18;4.35;;;1.60;;
41217;SDS011;26950;50.960;7.138;2022-07-29T06:37:44;4.93;;;1.63;;
41217;SDS011;26950;50.960;7.138;2022-07-29T06:40:11;8.07;;;1.77;;
41217;SDS011;26950;50.960;7.138;2022-07-29T06:42:55;6.53;;;1.70;;
41217;SDS011;26950;50.960;7.138;2022-07-29T06:45:22;5.57;;;1.80;;
41217;SDS011;26950;50.960;7.138;2022-07-29T06:47:49;5.93;;;1.80;;
41217;SDS011;26950;50.960;7.138;2022-07-29T06:50:17;5.95;;;2.05;;
41217;SDS011;26950;50.960;7.138;2022-07-29T06:52:43;5.45;;;1.98;;
41217;SDS011;26950;50.960;7.138;2022-07-29T06:55:10;6.35;;;1.70;;
41217;SDS011;26950;50.960;7.138;2022-07-29T06:57:36;5.25;;;1.60;;
41217;SDS011;26950;50.960;7.138;2022-07-29T07:00:03;5.95;;;1.90;;
41217;SDS011;26950;50.960;7.138;2022-07-29T07:02:30;3.67;;;1.73;;
41217;SDS011;26950;50.960;7.138;2022-07-29T07:04:57;4.93;;;1.50;;
41217;SDS011;26950;50.960;7.138;2022-07-29T07:07:25;4.47;;;1.70;;
41217;SDS011;26950;50.960;7.138;2022-07-29T07:09:52;6.97;;;1.98;;
41217;SDS011;26950;50.960;7.138;2022-07-29T07:12:18;5.50;;;1.55;;
41217;SDS011;26950;50.960;7.138;2022-07-29T07:14:44;7.70;;;1.75;;
41217;SDS011;26950;50.960;7.138;2022-07-29T07:17:11;2.15;;;1.50;;
41217;SDS011;26950;50.960;7.138;2022-07-29T07:19:37;4.60;;;1.58;;
41217;SDS011;26950;50.960;7.138;2022-07-29T07:22:03;4.65;;;1.60;;
41217;SDS011;26950;50.960;7.138;2022-07-29T07:24:31;5.68;;;1.50;;
41217;SDS011;26950;50.960;7.138;2022-07-29T07:26:58;2.80;;;1.55;;
41217;SDS011;26950;50.960;7.138;2022-07-29T07:29:24;3.40;;;1.92;;
41217;SDS011;26950;50.960;7.138;2022-07-29T07:31:51;4.47;;;1.70;;
41217;SDS011;26950;50.960;7.138;2022-07-29T07:34:17;4.43;;;1.70;;
41217;SDS011;26950;50.960;7.138;2022-07-29T07:36:44;4.65;;;1.83;;
41217;SDS011;26950;50.960;7.138;2022-07-29T07:39:10;6.22;;;1.75;;
41217;SDS011;26950;50.960;7.138;2022-07-29T07:41:38;8.25;;;1.75;;
41217;SDS011;26950;50.960;7.138;2022-07-29T07:44:04;5.25;;;1.60;;
41217;SDS011;26950;50.960;7.138;2022-07-29T07:46:31;3.65;;;1.60;;
41217;SDS011;26950;50.960;7.138;2022-07-29T07:48:57;5.65;;;1.80;;
41217;SDS011;26950;50.960;7.138;2022-07-29T07:51:24;3.55;;;1.63;;
41217;SDS011;26950;50.960;7.138;2022-07-29T07:53:50;8.38;;;2.10;;
41217;SDS011;26950;50.960;7.138;2022-07-29T07:56:17;5.35;;;1.80;;
41217;SDS011;26950;50.960;7.138;2022-07-29T07:58:44;9.95;;;1.70;;
41217;SDS011;26950;50.960;7.138;2022-07-29T08:01:11;4.13;;;1.73;;
41217;SDS011;26950;50.960;7.138;2022-07-29T08:03:37;4.60;;;2.13;;
41217;SDS011;26950;50.960;7.138;2022-07-29T08:06:04;6.13;;;1.80;;
41217;SDS011;26950;50.960;7.138;2022-07-29T08:08:31;8.35;;;1.70;;
41217;SDS011;26950;50.960;7.138;2022-07-29T08:10:57;4.45;;;1.50;;
41217;SDS011;26950;50.960;7.138;2022-07-29T08:13:25;8.23;;;1.77;;
41217;SDS011;26950;50.960;7.138;2022-07-29T08:15:54;5.50;;;1.70;;
41217;SDS011;26950;50.960;7.138;2022-07-29T08:18:25;6.18;;;2.10;;
41217;SDS011;26950;50.960;7.138;2022-07-29T08:20:54;5.40;;;1.50;;
41217;SDS011;26950;50.960;7.138;2022-07-29T08:23:22;9.15;;;2.30;;
41217;SDS011;26950;50.960;7.138;2022-07-29T08:25:48;3.55;;;1.65;;
41217;SDS011;26950;50.960;7.138;2022-07-29T08:28:15;5.32;;;1.80;;
41217;SDS011;26950;50.960;7.138;2022-07-29T08:30:42;4.53;;;1.67;;
41217;SDS011;26950;50.960;7.138;2022-07-29T08:33:09;7.03;;;1.70;;
41217;SDS011;26950;50.960;7.138;2022-07-29T08:35:36;3.25;;;1.67;;
41217;SDS011;26950;50.960;7.138;2022-07-29T08:38:04;3.65;;;1.42;;
41217;SDS011;26950;50.960;7.138;2022-07-29T08:40:31;11.18;;;1.98;;
41217;SDS011;26950;50.960;7.138;2022-07-29T08:42:57;6.10;;;1.77;;
41217;SDS011;26950;50.960;7.138;2022-07-29T08:45:24;7.53;;;1.98;;
41217;SDS011;26950;50.960;7.138;2022-07-29T08:47:51;4.88;;;1.80;;
41217;SDS011;26950;50.960;7.138;2022-07-29T08:50:19;8.65;;;1.83;;
41217;SDS011;26950;50.960;7.138;2022-07-29T08:52:46;5.43;;;2.00;;
41217;SDS011;26950;50.960;7.138;2022-07-29T08:55:15;7.53;;;1.80;;
41217;SDS011;26950;50.960;7.138;2022-07-29T08:57:42;5.00;;;1.50;;
41217;SDS011;26950;50.960;7.138;2022-07-29T09:00:09;5.32;;;1.80;;
41217;SDS011;26950;50.960;7.138;2022-07-29T09:02:39;7.30;;;1.90;;
41217;SDS011;26950;50.960;7.138;2022-07-29T09:05:07;5.65;;;1.80;;
41217;SDS011;26950;50.960;7.138;2022-07-29T09:07:35;6.82;;;1.67;;
41217;SDS011;26950;50.960;7.138;2022-07-29T09:10:03;3.83;;;1.70;;
41217;SDS011;26950;50.960;7.138;2022-07-29T09:12:31;9.18;;;2.10;;
41217;SDS011;26950;50.960;7.138;2022-07-29T09:14:57;5.57;;;1.95;;
41217;SDS011;26950;50.960;7.138;2022-07-29T09:17:39;6.32;;;1.77;;
41217;SDS011;26950;50.960;7.138;2022-07-29T09:20:09;9.02;;;2.20;;
41217;SDS011;26950;50.960;7.138;2022-07-29T09:22:38;8.00;;;1.80;;
41217;SDS011;26950;50.960;7.138;2022-07-29T09:25:05;5.93;;;1.80;;
41217;SDS011;26950;50.960;7.138;2022-07-29T09:27:33;6.05;;;1.67;;
41217;SDS011;26950;50.960;7.138;2022-07-29T09:30:00;7.72;;;1.92;;
41217;SDS011;26950;50.960;7.138;2022-07-29T09:32:30;5.78;;;1.75;;
41217;SDS011;26950;50.960;7.138;2022-07-29T09:35:13;4.55;;;1.70;;
41217;SDS011;26950;50.960;7.138;2022-07-29T09:37:42;7.47;;;1.92;;
41217;SDS011;26950;50.960;7.138;2022-07-29T09:40:11;7.10;;;1.80;;
41217;SDS011;26950;50.960;7.138;2022-07-29T09:42:38;6.65;;;1.88;;
41217;SDS011;26950;50.960;7.138;2022-07-29T09:45:05;7.85;;;2.13;;
41217;SDS011;26950;50.960;7.138;2022-07-29T09:47:40;5.38;;;1.80;;
41217;SDS011;26950;50.960;7.138;2022-07-29T09:50:10;8.55;;;2.03;;
41217;SDS011;26950;50.960;7.138;2022-07-29T09:52:45;4.88;;;1.95;;
41217;SDS011;26950;50.960;7.138;2022-07-29T09:55:13;4.00;;;1.77;;
41217;SDS011;26950;50.960;7.138;2022-07-29T09:57:40;6.82;;;2.20;;
41217;SDS011;26950;50.960;7.138;2022-07-29T10:00:07;6.72;;;2.38;;
41217;SDS011;26950;50.960;7.138;2022-07-29T10:02:36;6.03;;;2.03;;
41217;SDS011;26950;50.960;7.138;2022-07-29T10:05:04;8.05;;;2.08;;
41217;SDS011;26950;50.960;7.138;2022-07-29T10:07:46;8.68;;;1.67;;
41217;SDS011;26950;50.960;7.138;2022-07-29T10:10:20;10.73;;;2.10;;
41217;SDS011;26950;50.960;7.138;2022-07-29T10:12:48;8.20;;;1.92;;
41217;SDS011;26950;50.960;7.138;2022-07-29T10:15:16;4.40;;;1.73;;
41217;SDS011;26950;50.960;7.138;2022-07-29T10:17:43;7.88;;;2.05;;
41217;SDS011;26950;50.960;7.138;2022-07-29T10:20:11;9.35;;;1.88;;
41217;SDS011;26950;50.960;7.138;2022-07-29T10:22:38;6.43;;;1.90;;
41217;SDS011;26950;50.960;7.138;2022-07-29T10:25:06;10.02;;;2.05;;
41217;SDS011;26950;50.960;7.138;2022-07-29T10:27:34;10.00;;;2.10;;
41217;SDS011;26950;50.960;7.138;2022-07-29T10:30:01;9.07;;;2.63;;
41217;SDS011;26950;50.960;7.138;2022-07-29T10:32:33;6.90;;;2.10;;
41217;SDS011;26950;50.960;7.138;2022-07-29T10:35:11;8.77;;;1.92;;
41217;SDS011;26950;50.960;7.138;2022-07-29T10:37:47;9.15;;;2.25;;
41217;SDS011;26950;50.960;7.138;2022-07-29T10:40:32;10.68;;;2.60;;
41217;SDS011;26950;50.960;7.138;2022-07-29T10:43:25;10.52;;;2.58;;
41217;SDS011;26950;50.960;7.138;2022-07-29T10:45:55;10.68;;;2.30;;
41217;SDS011;26950;50.960;7.138;2022-07-29T10:48:23;8.25;;;2.50;;
41217;SDS011;26950;50.960;7.138;2022-07-29T10:50:53;9.88;;;2.88;;
41217;SDS011;26950;50.960;7.138;2022-07-29T10:53:21;6.70;;;2.15;;
41217;SDS011;26950;50.960;7.138;2022-07-29T10:55:49;20.42;;;3.13;;
41217;SDS011;26950;50.960;7.138;2022-07-29T10:58:17;10.65;;;2.58;;
41217;SDS011;26950;50.960;7.138;2022-07-29T11:00:46;8.00;;;2.42;;
41217;SDS011;26950;50.960;7.138;2022-07-29T11:06:11;6.28;;;2.25;;
41217;SDS011;26950;50.960;7.138;2022-07-29T11:08:37;7.53;;;2.40;;
41217;SDS011;26950;50.960;7.138;2022-07-29T11:14:05;8.43;;;2.90;;
41217;SDS011;26950;50.960;7.138;2022-07-29T11:19:28;8.55;;;3.20;;
41217;SDS011;26950;50.960;7.138;2022-07-29T11:21:55;11.52;;;2.53;;
41217;SDS011;26950;50.960;7.138;2022-07-29T11:24:22;8.13;;;2.83;;
41217;SDS011;26950;50.960;7.138;2022-07-29T11:27:13;9.15;;;3.17;;
41217;SDS011;26950;50.960;7.138;2022-07-29T11:29:48;11.00;;;3.33;;
41217;SDS011;26950;50.960;7.138;2022-07-29T11:32:16;9.32;;;2.70;;
41217;SDS011;26950;50.960;7.138;2022-07-29T11:34:44;8.50;;;2.70;;
41217;SDS011;26950;50.960;7.138;2022-07-29T11:37:16;7.70;;;2.47;;
41217;SDS011;26950;50.960;7.138;2022-07-29T11:39:44;12.48;;;3.03;;
41217;SDS011;26950;50.960;7.138;2022-07-29T11:45:06;10.80;;;2.72;;
41217;SDS011;26950;50.960;7.138;2022-07-29T11:47:34;6.80;;;2.28;;
41217;SDS011;26950;50.960;7.138;2022-07-29T11:50:03;8.45;;;2.60;;
41217;SDS011;26950;50.960;7.138;2022-07-29T11:52:32;5.75;;;2.10;;
41217;SDS011;26950;50.960;7.138;2022-07-29T11:55:02;8.13;;;2.20;;
41217;SDS011;26950;50.960;7.138;2022-07-29T11:57:30;8.07;;;2.22;;
41217;SDS011;26950;50.960;7.138;2022-07-29T12:00:00;8.05;;;2.35;;
41217;SDS011;26950;50.960;7.138;2022-07-29T12:02:38;9.07;;;2.15;;
41217;SDS011;26950;50.960;7.138;2022-07-29T12:05:07;7.93;;;2.40;;
41217;SDS011;26950;50.960;7.138;2022-07-29T12:07:34;4.82;;;1.85;;
41217;SDS011;26950;50.960;7.138;2022-07-29T12:10:02;6.95;;;2.30;;
41217;SDS011;26950;50.960;7.138;2022-07-29T12:12:30;7.15;;;1.90;;
41217;SDS011;26950;50.960;7.138;2022-07-29T12:14:56;4.65;;;2.20;;
41217;SDS011;26950;50.960;7.138;2022-07-29T12:17:27;8.38;;;2.20;;
41217;SDS011;26950;50.960;7.138;2022-07-29T12:19:54;6.30;;;2.30;;
41217;SDS011;26950;50.960;7.138;2022-07-29T12:22:25;6.32;;;2.00;;
41217;SDS011;26950;50.960;7.138;2022-07-29T12:24:52;4.00;;;1.90;;
41217;SDS011;26950;50.960;7.138;2022-07-29T12:27:19;7.13;;;2.15;;
41217;SDS011;26950;50.960;7.138;2022-07-29T12:29:54;7.95;;;2.20;;
41217;SDS011;26950;50.960;7.138;2022-07-29T12:32:21;6.00;;;1.98;;
41217;SDS011;26950;50.960;7.138;2022-07-29T12:34:49;5.60;;;1.83;;
41217;SDS011;26950;50.960;7.138;2022-07-29T12:37:16;4.95;;;2.10;;
41217;SDS011;26950;50.960;7.138;2022-07-29T12:39:43;5.82;;;2.03;;
41217;SDS011;26950;50.960;7.138;2022-07-29T12:42:11;4.00;;;1.75;;
41217;SDS011;26950;50.960;7.138;2022-07-29T12:44:44;7.22;;;1.77;;
41217;SDS011;26950;50.960;7.138;2022-07-29T12:47:12;6.88;;;2.20;;
41217;SDS011;26950;50.960;7.138;2022-07-29T12:49:38;4.72;;;2.20;;
41217;SDS011;26950;50.960;7.138;2022-07-29T12:54:51;4.80;;;2.00;;
41217;SDS011;26950;50.960;7.138;2022-07-29T12:57:18;6.13;;;2.00;;
41217;SDS011;26950;50.960;7.138;2022-07-29T12:59:44;10.88;;;2.33;;
41217;SDS011;26950;50.960;7.138;2022-07-29T13:02:20;10.70;;;2.33;;
41217;SDS011;26950;50.960;7.138;2022-07-29T13:04:54;4.53;;;1.98;;
41217;SDS011;26950;50.960;7.138;2022-07-29T13:07:24;6.13;;;1.70;;
41217;SDS011;26950;50.960;7.138;2022-07-29T13:09:52;6.60;;;1.98;;
41217;SDS011;26950;50.960;7.138;2022-07-29T13:12:19;7.82;;;2.28;;
41217;SDS011;26950;50.960;7.138;2022-07-29T13:14:46;4.68;;;2.10;;
41217;SDS011;26950;50.960;7.138;2022-07-29T13:17:16;5.75;;;2.00;;
41217;SDS011;26950;50.960;7.138;2022-07-29T13:19:44;8.07;;;2.10;;
41217;SDS011;26950;50.960;7.138;2022-07-29T13:22:12;5.72;;;2.03;;
41217;SDS011;26950;50.960;7.138;2022-07-29T13:24:48;6.90;;;2.30;;
41217;SDS011;26950;50.960;7.138;2022-07-29T13:27:15;5.50;;;1.88;;
41217;SDS011;26950;50.960;7.138;2022-07-29T13:29:42;6.65;;;2.10;;
41217;SDS011;26950;50.960;7.138;2022-07-29T13:32:09;6.00;;;1.90;;
41217;SDS011;26950;50.960;7.138;2022-07-29T13:34:35;6.80;;;2.17;;
41217;SDS011;26950;50.960;7.138;2022-07-29T13:37:02;7.30;;;2.13;;
41217;SDS011;26950;50.960;7.138;2022-07-29T13:39:28;5.63;;;1.90;;
41217;SDS011;26950;50.960;7.138;2022-07-29T13:41:56;3.95;;;2.03;;
41217;SDS011;26950;50.960;7.138;2022-07-29T13:44:23;8.10;;;2.40;;
41217;SDS011;26950;50.960;7.138;2022-07-29T13:46:49;5.57;;;2.05;;
41217;SDS011;26950;50.960;7.138;2022-07-29T13:49:16;5.03;;;1.83;;
41217;SDS011;26950;50.960;7.138;2022-07-29T13:51:42;6.72;;;2.03;;
41217;SDS011;26950;50.960;7.138;2022-07-29T13:54:08;6.90;;;1.88;;
41217;SDS011;26950;50.960;7.138;2022-07-29T13:56:35;6.32;;;2.17;;
41217;SDS011;26950;50.960;7.138;2022-07-29T13:59:03;6.80;;;2.15;;
41217;SDS011;26950;50.960;7.138;2022-07-29T14:01:29;4.78;;;2.28;;
41217;SDS011;26950;50.960;7.138;2022-07-29T14:03:56;5.30;;;2.20;;
41217;SDS011;26950;50.960;7.138;2022-07-29T14:06:22;4.40;;;1.90;;
41217;SDS011;26950;50.960;7.138;2022-07-29T14:08:49;5.60;;;2.13;;
41217;SDS011;26950;50.960;7.138;2022-07-29T14:11:15;6.43;;;1.98;;
41217;SDS011;26950;50.960;7.138;2022-07-29T14:13:42;5.47;;;2.10;;
41217;SDS011;26950;50.960;7.138;2022-07-29T14:16:09;5.47;;;1.88;;
41217;SDS011;26950;50.960;7.138;2022-07-29T14:18:36;5.93;;;2.10;;
41217;SDS011;26950;50.960;7.138;2022-07-29T14:21:02;4.57;;;2.00;;
41217;SDS011;26950;50.960;7.138;2022-07-29T14:23:29;4.03;;;2.03;;
41217;SDS011;26950;50.960;7.138;2022-07-29T14:25:56;9.35;;;2.38;;
41217;SDS011;26950;50.960;7.138;2022-07-29T14:28:22;6.65;;;2.67;;
41217;SDS011;26950;50.960;7.138;2022-07-29T14:30:49;5.50;;;2.20;;
41217;SDS011;26950;50.960;7.138;2022-07-29T14:33:17;4.88;;;2.03;;
41217;SDS011;26950;50.960;7.138;2022-07-29T14:35:44;4.65;;;2.20;;
41217;SDS011;26950;50.960;7.138;2022-07-29T14:38:10;4.53;;;2.30;;
41217;SDS011;26950;50.960;7.138;2022-07-29T14:40:37;4.50;;;2.10;;
41217;SDS011;26950;50.960;7.138;2022-07-29T14:43:03;9.45;;;2.38;;
41217;SDS011;26950;50.960;7.138;2022-07-29T14:45:30;5.47;;;2.28;;
41217;SDS011;26950;50.960;7.138;2022-07-29T14:47:56;4.85;;;2.22;;
41217;SDS011;26950;50.960;7.138;2022-07-29T14:50:26;7.40;;;2.25;;
41217;SDS011;26950;50.960;7.138;2022-07-29T14:52:52;5.60;;;2.40;;
41217;SDS011;26950;50.960;7.138;2022-07-29T14:55:19;3.35;;;2.10;;
41217;SDS011;26950;50.960;7.138;2022-07-29T14:57:46;5.78;;;2.13;;
41217;SDS011;26950;50.960;7.138;2022-07-29T15:00:13;7.20;;;2.33;;
41217;SDS011;26950;50.960;7.138;2022-07-29T15:02:40;5.28;;;2.35;;
41217;SDS011;26950;50.960;7.138;2022-07-29T15:05:07;6.78;;;2.58;;
41217;SDS011;26950;50.960;7.138;2022-07-29T15:07:35;11.88;;;2.40;;
41217;SDS011;26950;50.960;7.138;2022-07-29T15:10:01;7.35;;;2.58;;
41217;SDS011;26950;50.960;7.138;2022-07-29T15:12:29;5.65;;;2.20;;